sensor_id;sensor_type;location;lat;lon;timestamp;P1;durP1;ratioP1;P2;durP2;ratioP2
76202;SDS011;64985;46.364;17.008;2024-03-08T00:02:08;53.28;;;23.55;;
76202;SDS011;64985;46.364;17.008;2024-03-08T00:05:10;55.83;;;23.90;;
76202;SDS011;64985;46.364;17.008;2024-03-08T00:08:14;53.78;;;24.10;;
76202;SDS011;64985;46.364;17.008;2024-03-08T00:11:17;53.20;;;23.77;;
76202;SDS011;64985;46.364;17.008;2024-03-08T00:14:19;54.00;;;24.58;;
76202;SDS011;64985;46.364;17.008;2024-03-08T00:17:21;56.75;;;23.73;;
76202;SDS011;64985;46.364;17.008;2024-03-08T00:20:30;55.70;;;24.03;;
76202;SDS011;64985;46.364;17.008;2024-03-08T00:23:33;55.40;;;24.35;;
76202;SDS011;64985;46.364;17.008;2024-03-08T00:26:35;54.95;;;24.30;;
76202;SDS011;64985;46.364;17.008;2024-03-08T00:29:37;59.88;;;26.02;;
76202;SDS011;64985;46.364;17.008;2024-03-08T00:32:42;54.78;;;25.30;;
76202;SDS011;64985;46.364;17.008;2024-03-08T00:35:45;57.95;;;25.60;;
76202;SDS011;64985;46.364;17.008;2024-03-08T00:38:47;60.88;;;25.08;;
76202;SDS011;64985;46.364;17.008;2024-03-08T00:41:50;59.50;;;24.73;;
76202;SDS011;64985;46.364;17.008;2024-03-08T00:44:52;56.67;;;25.77;;
76202;SDS011;64985;46.364;17.008;2024-03-08T00:47:54;60.92;;;26.88;;
76202;SDS011;64985;46.364;17.008;2024-03-08T00:50:56;65.85;;;26.83;;
76202;SDS011;64985;46.364;17.008;2024-03-08T00:53:59;64.15;;;27.20;;
76202;SDS011;64985;46.364;17.008;2024-03-08T00:57:01;66.60;;;28.40;;
76202;SDS011;64985;46.364;17.008;2024-03-08T01:00:05;63.00;;;27.77;;
76202;SDS011;64985;46.364;17.008;2024-03-08T01:03:12;67.88;;;27.73;;
76202;SDS011;64985;46.364;17.008;2024-03-08T01:06:14;57.15;;;26.52;;
76202;SDS011;64985;46.364;17.008;2024-03-08T01:09:17;61.78;;;26.92;;
76202;SDS011;64985;46.364;17.008;2024-03-08T01:12:19;58.70;;;26.38;;
76202;SDS011;64985;46.364;17.008;2024-03-08T01:15:22;56.80;;;25.20;;
76202;SDS011;64985;46.364;17.008;2024-03-08T01:18:25;63.70;;;26.45;;
76202;SDS011;64985;46.364;17.008;2024-03-08T01:21:27;55.03;;;24.42;;
76202;SDS011;64985;46.364;17.008;2024-03-08T01:24:29;58.15;;;24.67;;
76202;SDS011;64985;46.364;17.008;2024-03-08T01:27:32;64.35;;;25.83;;
76202;SDS011;64985;46.364;17.008;2024-03-08T01:30:34;58.22;;;24.98;;
76202;SDS011;64985;46.364;17.008;2024-03-08T01:33:38;58.92;;;25.17;;
76202;SDS011;64985;46.364;17.008;2024-03-08T01:36:42;57.70;;;25.58;;
76202;SDS011;64985;46.364;17.008;2024-03-08T01:39:44;60.33;;;25.02;;
76202;SDS011;64985;46.364;17.008;2024-03-08T01:42:47;65.05;;;25.80;;
76202;SDS011;64985;46.364;17.008;2024-03-08T01:45:49;59.47;;;26.15;;
76202;SDS011;64985;46.364;17.008;2024-03-08T01:48:52;58.88;;;24.85;;
76202;SDS011;64985;46.364;17.008;2024-03-08T01:51:55;62.60;;;26.48;;
76202;SDS011;64985;46.364;17.008;2024-03-08T01:55:00;65.70;;;27.13;;
76202;SDS011;64985;46.364;17.008;2024-03-08T01:58:04;61.00;;;24.88;;
76202;SDS011;64985;46.364;17.008;2024-03-08T02:01:07;62.78;;;26.77;;
76202;SDS011;64985;46.364;17.008;2024-03-08T02:04:11;70.32;;;28.67;;
76202;SDS011;64985;46.364;17.008;2024-03-08T02:07:13;64.45;;;26.02;;
76202;SDS011;64985;46.364;17.008;2024-03-08T02:10:15;65.80;;;27.15;;
76202;SDS011;64985;46.364;17.008;2024-03-08T02:13:18;65.28;;;26.30;;
76202;SDS011;64985;46.364;17.008;2024-03-08T02:16:22;56.53;;;23.48;;
76202;SDS011;64985;46.364;17.008;2024-03-08T02:19:24;66.78;;;26.08;;
76202;SDS011;64985;46.364;17.008;2024-03-08T02:22:30;58.95;;;24.17;;
76202;SDS011;64985;46.364;17.008;2024-03-08T02:25:33;64.30;;;24.83;;
76202;SDS011;64985;46.364;17.008;2024-03-08T02:28:36;59.60;;;23.95;;
76202;SDS011;64985;46.364;17.008;2024-03-08T02:31:40;76.22;;;28.25;;
76202;SDS011;64985;46.364;17.008;2024-03-08T02:34:42;73.72;;;27.30;;
76202;SDS011;64985;46.364;17.008;2024-03-08T02:37:45;75.15;;;27.00;;
76202;SDS011;64985;46.364;17.008;2024-03-08T02:40:50;76.68;;;26.33;;
76202;SDS011;64985;46.364;17.008;2024-03-08T02:43:53;79.07;;;26.67;;
76202;SDS011;64985;46.364;17.008;2024-03-08T02:46:56;64.97;;;24.70;;
76202;SDS011;64985;46.364;17.008;2024-03-08T02:49:59;67.57;;;26.63;;
76202;SDS011;64985;46.364;17.008;2024-03-08T02:53:03;68.25;;;25.48;;
76202;SDS011;64985;46.364;17.008;2024-03-08T02:56:06;65.35;;;24.92;;
76202;SDS011;64985;46.364;17.008;2024-03-08T02:59:10;75.45;;;25.95;;
76202;SDS011;64985;46.364;17.008;2024-03-08T03:02:12;69.10;;;25.50;;
76202;SDS011;64985;46.364;17.008;2024-03-08T03:05:15;68.68;;;24.95;;
76202;SDS011;64985;46.364;17.008;2024-03-08T03:08:17;61.00;;;23.77;;
76202;SDS011;64985;46.364;17.008;2024-03-08T03:11:21;69.20;;;25.55;;
76202;SDS011;64985;46.364;17.008;2024-03-08T03:14:24;77.07;;;26.17;;
76202;SDS011;64985;46.364;17.008;2024-03-08T03:17:29;67.97;;;23.98;;
76202;SDS011;64985;46.364;17.008;2024-03-08T03:20:32;66.30;;;24.42;;
76202;SDS011;64985;46.364;17.008;2024-03-08T03:23:35;67.10;;;25.35;;
76202;SDS011;64985;46.364;17.008;2024-03-08T03:26:39;64.13;;;24.45;;
76202;SDS011;64985;46.364;17.008;2024-03-08T03:29:42;59.90;;;22.95;;
76202;SDS011;64985;46.364;17.008;2024-03-08T03:32:48;64.70;;;23.48;;
76202;SDS011;64985;46.364;17.008;2024-03-08T03:35:53;62.85;;;23.92;;
76202;SDS011;64985;46.364;17.008;2024-03-08T03:38:56;73.18;;;25.38;;
76202;SDS011;64985;46.364;17.008;2024-03-08T03:42:07;65.20;;;24.75;;
76202;SDS011;64985;46.364;17.008;2024-03-08T03:45:09;72.63;;;26.67;;
76202;SDS011;64985;46.364;17.008;2024-03-08T03:48:12;69.13;;;25.40;;
76202;SDS011;64985;46.364;17.008;2024-03-08T03:51:14;75.60;;;26.10;;
76202;SDS011;64985;46.364;17.008;2024-03-08T03:54:17;69.50;;;24.83;;
76202;SDS011;64985;46.364;17.008;2024-03-08T03:57:20;69.50;;;24.08;;
76202;SDS011;64985;46.364;17.008;2024-03-08T04:00:24;64.97;;;22.42;;
76202;SDS011;64985;46.364;17.008;2024-03-08T04:03:28;59.80;;;21.95;;
76202;SDS011;64985;46.364;17.008;2024-03-08T04:06:31;64.20;;;22.65;;
76202;SDS011;64985;46.364;17.008;2024-03-08T04:09:34;66.60;;;22.58;;
76202;SDS011;64985;46.364;17.008;2024-03-08T04:12:37;60.97;;;22.90;;
76202;SDS011;64985;46.364;17.008;2024-03-08T04:15:40;68.47;;;23.60;;
76202;SDS011;64985;46.364;17.008;2024-03-08T04:18:42;62.20;;;22.60;;
76202;SDS011;64985;46.364;17.008;2024-03-08T04:21:45;66.32;;;24.13;;
76202;SDS011;64985;46.364;17.008;2024-03-08T04:24:47;66.03;;;23.42;;
76202;SDS011;64985;46.364;17.008;2024-03-08T04:27:49;69.95;;;24.45;;
76202;SDS011;64985;46.364;17.008;2024-03-08T04:30:54;73.50;;;24.55;;
76202;SDS011;64985;46.364;17.008;2024-03-08T04:33:56;62.70;;;23.15;;
76202;SDS011;64985;46.364;17.008;2024-03-08T04:36:59;66.28;;;23.55;;
76202;SDS011;64985;46.364;17.008;2024-03-08T04:40:02;67.60;;;22.65;;
76202;SDS011;64985;46.364;17.008;2024-03-08T04:43:04;68.00;;;22.77;;
76202;SDS011;64985;46.364;17.008;2024-03-08T04:46:08;68.53;;;23.38;;
76202;SDS011;64985;46.364;17.008;2024-03-08T04:49:10;65.88;;;22.75;;
76202;SDS011;64985;46.364;17.008;2024-03-08T04:52:13;61.28;;;22.15;;
76202;SDS011;64985;46.364;17.008;2024-03-08T04:55:15;72.25;;;23.25;;
76202;SDS011;64985;46.364;17.008;2024-03-08T04:58:17;68.57;;;24.83;;
76202;SDS011;64985;46.364;17.008;2024-03-08T05:01:20;69.05;;;22.75;;
76202;SDS011;64985;46.364;17.008;2024-03-08T05:04:23;77.25;;;24.55;;
76202;SDS011;64985;46.364;17.008;2024-03-08T05:07:25;75.28;;;25.70;;
76202;SDS011;64985;46.364;17.008;2024-03-08T05:10:28;76.53;;;26.90;;
76202;SDS011;64985;46.364;17.008;2024-03-08T05:13:30;70.72;;;24.55;;
76202;SDS011;64985;46.364;17.008;2024-03-08T05:16:33;68.38;;;24.52;;
76202;SDS011;64985;46.364;17.008;2024-03-08T05:19:36;72.30;;;24.77;;
76202;SDS011;64985;46.364;17.008;2024-03-08T05:22:38;74.00;;;25.50;;
76202;SDS011;64985;46.364;17.008;2024-03-08T05:25:41;78.88;;;26.40;;
76202;SDS011;64985;46.364;17.008;2024-03-08T05:28:44;78.53;;;25.98;;
76202;SDS011;64985;46.364;17.008;2024-03-08T05:31:50;89.93;;;28.80;;
76202;SDS011;64985;46.364;17.008;2024-03-08T05:34:56;77.88;;;25.10;;
76202;SDS011;64985;46.364;17.008;2024-03-08T05:37:58;78.30;;;26.40;;
76202;SDS011;64985;46.364;17.008;2024-03-08T05:41:00;79.13;;;25.08;;
76202;SDS011;64985;46.364;17.008;2024-03-08T05:44:02;78.82;;;25.42;;
76202;SDS011;64985;46.364;17.008;2024-03-08T05:47:05;79.35;;;25.33;;
76202;SDS011;64985;46.364;17.008;2024-03-08T05:50:08;78.03;;;26.38;;
76202;SDS011;64985;46.364;17.008;2024-03-08T05:53:13;78.43;;;24.70;;
76202;SDS011;64985;46.364;17.008;2024-03-08T05:56:16;70.72;;;24.38;;
76202;SDS011;64985;46.364;17.008;2024-03-08T05:59:18;81.85;;;26.30;;
76202;SDS011;64985;46.364;17.008;2024-03-08T06:02:20;86.57;;;27.40;;
76202;SDS011;64985;46.364;17.008;2024-03-08T06:05:23;83.57;;;26.60;;
76202;SDS011;64985;46.364;17.008;2024-03-08T06:08:26;96.65;;;29.02;;
76202;SDS011;64985;46.364;17.008;2024-03-08T06:11:31;102.68;;;28.67;;
76202;SDS011;64985;46.364;17.008;2024-03-08T06:14:34;80.82;;;27.65;;
76202;SDS011;64985;46.364;17.008;2024-03-08T06:17:36;126.65;;;35.60;;
76202;SDS011;64985;46.364;17.008;2024-03-08T06:20:39;118.15;;;36.92;;
76202;SDS011;64985;46.364;17.008;2024-03-08T06:23:45;126.00;;;36.53;;
76202;SDS011;64985;46.364;17.008;2024-03-08T06:26:47;106.47;;;36.67;;
76202;SDS011;64985;46.364;17.008;2024-03-08T06:29:50;100.30;;;33.70;;
76202;SDS011;64985;46.364;17.008;2024-03-08T06:32:52;121.65;;;40.53;;
76202;SDS011;64985;46.364;17.008;2024-03-08T06:35:55;104.97;;;34.55;;
76202;SDS011;64985;46.364;17.008;2024-03-08T06:39:00;98.38;;;32.90;;
76202;SDS011;64985;46.364;17.008;2024-03-08T06:42:02;113.70;;;35.10;;
76202;SDS011;64985;46.364;17.008;2024-03-08T06:45:07;110.53;;;34.22;;
76202;SDS011;64985;46.364;17.008;2024-03-08T06:48:11;92.35;;;32.05;;
76202;SDS011;64985;46.364;17.008;2024-03-08T06:51:14;103.60;;;32.78;;
76202;SDS011;64985;46.364;17.008;2024-03-08T06:54:17;110.75;;;33.08;;
76202;SDS011;64985;46.364;17.008;2024-03-08T06:57:19;107.70;;;34.90;;
76202;SDS011;64985;46.364;17.008;2024-03-08T07:00:24;119.40;;;37.42;;
76202;SDS011;64985;46.364;17.008;2024-03-08T07:03:28;119.82;;;38.60;;
76202;SDS011;64985;46.364;17.008;2024-03-08T07:06:31;133.18;;;41.75;;
76202;SDS011;64985;46.364;17.008;2024-03-08T07:09:38;122.68;;;40.85;;
76202;SDS011;64985;46.364;17.008;2024-03-08T07:12:41;123.07;;;41.15;;
76202;SDS011;64985;46.364;17.008;2024-03-08T07:15:44;125.65;;;41.88;;
76202;SDS011;64985;46.364;17.008;2024-03-08T07:18:47;123.43;;;42.13;;
76202;SDS011;64985;46.364;17.008;2024-03-08T07:21:49;119.95;;;41.78;;
76202;SDS011;64985;46.364;17.008;2024-03-08T07:24:51;111.13;;;38.72;;
76202;SDS011;64985;46.364;17.008;2024-03-08T07:31:14;91.70;;;35.17;;
76202;SDS011;64985;46.364;17.008;2024-03-08T07:34:17;85.13;;;33.88;;
76202;SDS011;64985;46.364;17.008;2024-03-08T07:37:19;79.10;;;33.33;;
76202;SDS011;64985;46.364;17.008;2024-03-08T07:40:22;74.20;;;31.52;;
76202;SDS011;64985;46.364;17.008;2024-03-08T07:43:24;77.35;;;33.50;;
76202;SDS011;64985;46.364;17.008;2024-03-08T07:46:27;97.00;;;37.17;;
76202;SDS011;64985;46.364;17.008;2024-03-08T07:49:33;74.68;;;32.03;;
76202;SDS011;64985;46.364;17.008;2024-03-08T07:52:36;75.65;;;32.45;;
76202;SDS011;64985;46.364;17.008;2024-03-08T07:55:38;74.82;;;32.95;;
76202;SDS011;64985;46.364;17.008;2024-03-08T07:58:44;71.82;;;30.85;;
76202;SDS011;64985;46.364;17.008;2024-03-08T08:01:46;79.18;;;31.67;;
76202;SDS011;64985;46.364;17.008;2024-03-08T08:04:49;71.28;;;30.90;;
76202;SDS011;64985;46.364;17.008;2024-03-08T08:07:51;70.50;;;31.00;;
76202;SDS011;64985;46.364;17.008;2024-03-08T08:10:55;75.20;;;32.28;;
76202;SDS011;64985;46.364;17.008;2024-03-08T08:13:57;70.50;;;29.52;;
76202;SDS011;64985;46.364;17.008;2024-03-08T08:17:01;71.65;;;30.75;;
76202;SDS011;64985;46.364;17.008;2024-03-08T08:20:06;67.47;;;29.77;;
76202;SDS011;64985;46.364;17.008;2024-03-08T08:23:08;63.90;;;28.98;;
76202;SDS011;64985;46.364;17.008;2024-03-08T08:26:11;60.50;;;26.92;;
76202;SDS011;64985;46.364;17.008;2024-03-08T08:29:14;49.75;;;23.45;;
76202;SDS011;64985;46.364;17.008;2024-03-08T08:32:16;46.92;;;21.42;;
76202;SDS011;64985;46.364;17.008;2024-03-08T08:35:20;42.08;;;19.23;;
76202;SDS011;64985;46.364;17.008;2024-03-08T08:38:22;40.40;;;19.25;;
76202;SDS011;64985;46.364;17.008;2024-03-08T08:41:25;37.33;;;17.90;;
76202;SDS011;64985;46.364;17.008;2024-03-08T08:44:28;38.67;;;18.67;;
76202;SDS011;64985;46.364;17.008;2024-03-08T08:47:30;38.08;;;18.58;;
76202;SDS011;64985;46.364;17.008;2024-03-08T08:50:32;36.47;;;19.30;;
76202;SDS011;64985;46.364;17.008;2024-03-08T08:53:35;35.50;;;18.60;;
76202;SDS011;64985;46.364;17.008;2024-03-08T08:56:37;38.53;;;18.42;;
76202;SDS011;64985;46.364;17.008;2024-03-08T08:59:39;37.55;;;18.40;;
76202;SDS011;64985;46.364;17.008;2024-03-08T09:02:41;39.95;;;18.90;;
76202;SDS011;64985;46.364;17.008;2024-03-08T09:05:44;36.42;;;18.17;;
76202;SDS011;64985;46.364;17.008;2024-03-08T09:08:47;36.10;;;17.95;;
76202;SDS011;64985;46.364;17.008;2024-03-08T09:11:49;34.30;;;17.20;;
76202;SDS011;64985;46.364;17.008;2024-03-08T09:14:52;33.22;;;16.98;;
76202;SDS011;64985;46.364;17.008;2024-03-08T09:17:54;35.17;;;17.90;;
76202;SDS011;64985;46.364;17.008;2024-03-08T09:20:56;37.22;;;18.25;;
76202;SDS011;64985;46.364;17.008;2024-03-08T09:23:59;37.58;;;18.83;;
76202;SDS011;64985;46.364;17.008;2024-03-08T09:27:01;37.67;;;17.20;;
76202;SDS011;64985;46.364;17.008;2024-03-08T09:30:04;35.00;;;18.23;;
76202;SDS011;64985;46.364;17.008;2024-03-08T09:33:09;32.60;;;16.90;;
76202;SDS011;64985;46.364;17.008;2024-03-08T09:36:11;31.23;;;16.33;;
76202;SDS011;64985;46.364;17.008;2024-03-08T09:39:15;32.08;;;16.83;;
76202;SDS011;64985;46.364;17.008;2024-03-08T09:42:18;30.45;;;16.15;;
76202;SDS011;64985;46.364;17.008;2024-03-08T09:45:21;28.52;;;15.45;;
76202;SDS011;64985;46.364;17.008;2024-03-08T09:48:27;29.83;;;15.75;;
76202;SDS011;64985;46.364;17.008;2024-03-08T09:51:31;30.83;;;15.85;;
76202;SDS011;64985;46.364;17.008;2024-03-08T09:54:36;28.38;;;15.50;;
76202;SDS011;64985;46.364;17.008;2024-03-08T09:57:42;27.83;;;15.63;;
76202;SDS011;64985;46.364;17.008;2024-03-08T10:01:08;28.70;;;15.93;;
76202;SDS011;64985;46.364;17.008;2024-03-08T10:04:10;34.97;;;17.50;;
76202;SDS011;64985;46.364;17.008;2024-03-08T10:07:13;33.58;;;17.08;;
76202;SDS011;64985;46.364;17.008;2024-03-08T10:10:16;32.15;;;17.20;;
76202;SDS011;64985;46.364;17.008;2024-03-08T10:13:18;36.40;;;18.83;;
76202;SDS011;64985;46.364;17.008;2024-03-08T10:16:21;36.55;;;18.33;;
76202;SDS011;64985;46.364;17.008;2024-03-08T10:19:26;33.53;;;18.15;;
76202;SDS011;64985;46.364;17.008;2024-03-08T10:22:31;33.60;;;18.25;;
76202;SDS011;64985;46.364;17.008;2024-03-08T10:25:34;32.13;;;17.17;;
76202;SDS011;64985;46.364;17.008;2024-03-08T10:28:37;28.92;;;17.13;;
76202;SDS011;64985;46.364;17.008;2024-03-08T10:31:39;30.20;;;16.85;;
76202;SDS011;64985;46.364;17.008;2024-03-08T10:34:44;26.38;;;16.33;;
76202;SDS011;64985;46.364;17.008;2024-03-08T10:37:50;26.20;;;15.65;;
76202;SDS011;64985;46.364;17.008;2024-03-08T10:41:01;27.60;;;15.80;;
76202;SDS011;64985;46.364;17.008;2024-03-08T10:44:23;24.27;;;14.60;;
76202;SDS011;64985;46.364;17.008;2024-03-08T10:47:31;22.92;;;14.57;;
76202;SDS011;64985;46.364;17.008;2024-03-08T10:50:40;24.13;;;15.38;;
76202;SDS011;64985;46.364;17.008;2024-03-08T10:53:43;24.17;;;14.95;;
76202;SDS011;64985;46.364;17.008;2024-03-08T10:56:48;22.08;;;14.07;;
76202;SDS011;64985;46.364;17.008;2024-03-08T10:59:52;23.35;;;14.68;;
76202;SDS011;64985;46.364;17.008;2024-03-08T11:02:58;26.00;;;14.95;;
76202;SDS011;64985;46.364;17.008;2024-03-08T11:06:02;23.65;;;14.48;;
76202;SDS011;64985;46.364;17.008;2024-03-08T11:12:38;26.55;;;15.05;;
76202;SDS011;64985;46.364;17.008;2024-03-08T11:15:41;27.23;;;15.13;;
76202;SDS011;64985;46.364;17.008;2024-03-08T11:18:44;24.77;;;14.07;;
76202;SDS011;64985;46.364;17.008;2024-03-08T11:21:59;25.77;;;14.43;;
76202;SDS011;64985;46.364;17.008;2024-03-08T11:25:08;24.83;;;13.88;;
76202;SDS011;64985;46.364;17.008;2024-03-08T11:28:19;28.70;;;15.35;;
76202;SDS011;64985;46.364;17.008;2024-03-08T11:31:24;26.80;;;15.27;;
76202;SDS011;64985;46.364;17.008;2024-03-08T11:34:30;28.15;;;16.00;;
76202;SDS011;64985;46.364;17.008;2024-03-08T11:37:34;26.75;;;15.48;;
76202;SDS011;64985;46.364;17.008;2024-03-08T11:40:38;30.38;;;15.95;;
76202;SDS011;64985;46.364;17.008;2024-03-08T11:43:42;31.05;;;17.40;;
76202;SDS011;64985;46.364;17.008;2024-03-08T11:46:44;36.50;;;18.63;;
76202;SDS011;64985;46.364;17.008;2024-03-08T11:49:49;32.78;;;17.77;;
76202;SDS011;64985;46.364;17.008;2024-03-08T11:52:52;31.05;;;17.23;;
76202;SDS011;64985;46.364;17.008;2024-03-08T11:55:54;30.45;;;15.77;;
76202;SDS011;64985;46.364;17.008;2024-03-08T11:59:06;24.63;;;14.65;;
76202;SDS011;64985;46.364;17.008;2024-03-08T12:02:14;27.23;;;15.75;;
76202;SDS011;64985;46.364;17.008;2024-03-08T12:05:16;25.45;;;12.93;;
76202;SDS011;64985;46.364;17.008;2024-03-08T12:08:21;25.98;;;14.95;;
76202;SDS011;64985;46.364;17.008;2024-03-08T12:11:24;82.35;;;25.80;;
76202;SDS011;64985;46.364;17.008;2024-03-08T12:14:30;28.02;;;14.93;;
76202;SDS011;64985;46.364;17.008;2024-03-08T12:17:33;29.40;;;15.65;;
76202;SDS011;64985;46.364;17.008;2024-03-08T12:20:36;40.72;;;17.77;;
76202;SDS011;64985;46.364;17.008;2024-03-08T12:23:40;35.33;;;17.27;;
76202;SDS011;64985;46.364;17.008;2024-03-08T12:26:43;25.98;;;15.02;;
76202;SDS011;64985;46.364;17.008;2024-03-08T12:29:46;29.92;;;15.10;;
76202;SDS011;64985;46.364;17.008;2024-03-08T12:32:50;33.00;;;16.00;;
76202;SDS011;64985;46.364;17.008;2024-03-08T12:35:55;34.75;;;16.25;;
76202;SDS011;64985;46.364;17.008;2024-03-08T12:39:00;25.98;;;14.43;;
76202;SDS011;64985;46.364;17.008;2024-03-08T12:42:02;25.83;;;14.50;;
76202;SDS011;64985;46.364;17.008;2024-03-08T12:45:05;27.63;;;15.30;;
76202;SDS011;64985;46.364;17.008;2024-03-08T12:48:12;27.92;;;15.00;;
76202;SDS011;64985;46.364;17.008;2024-03-08T12:51:19;26.05;;;15.27;;
76202;SDS011;64985;46.364;17.008;2024-03-08T12:54:22;38.75;;;18.13;;
76202;SDS011;64985;46.364;17.008;2024-03-08T12:57:25;23.90;;;14.75;;
76202;SDS011;64985;46.364;17.008;2024-03-08T13:00:30;26.75;;;14.38;;
76202;SDS011;64985;46.364;17.008;2024-03-08T13:03:32;26.60;;;14.77;;
76202;SDS011;64985;46.364;17.008;2024-03-08T13:06:37;28.25;;;15.68;;
76202;SDS011;64985;46.364;17.008;2024-03-08T13:09:40;30.15;;;16.00;;
76202;SDS011;64985;46.364;17.008;2024-03-08T13:12:44;30.88;;;16.30;;
76202;SDS011;64985;46.364;17.008;2024-03-08T13:15:46;26.85;;;14.82;;
76202;SDS011;64985;46.364;17.008;2024-03-08T13:18:50;31.90;;;16.45;;
76202;SDS011;64985;46.364;17.008;2024-03-08T13:21:55;26.30;;;13.77;;
76202;SDS011;64985;46.364;17.008;2024-03-08T13:24:58;30.15;;;16.73;;
76202;SDS011;64985;46.364;17.008;2024-03-08T13:28:02;102.43;;;36.17;;
76202;SDS011;64985;46.364;17.008;2024-03-08T13:31:05;26.50;;;15.07;;
76202;SDS011;64985;46.364;17.008;2024-03-08T13:34:08;24.77;;;13.57;;
76202;SDS011;64985;46.364;17.008;2024-03-08T13:37:13;25.10;;;13.43;;
76202;SDS011;64985;46.364;17.008;2024-03-08T13:40:18;26.75;;;14.73;;
76202;SDS011;64985;46.364;17.008;2024-03-08T13:43:22;34.85;;;18.75;;
76202;SDS011;64985;46.364;17.008;2024-03-08T13:46:24;24.98;;;14.07;;
76202;SDS011;64985;46.364;17.008;2024-03-08T13:49:28;27.15;;;14.18;;
76202;SDS011;64985;46.364;17.008;2024-03-08T13:52:31;27.75;;;13.88;;
76202;SDS011;64985;46.364;17.008;2024-03-08T13:55:33;23.95;;;13.63;;
76202;SDS011;64985;46.364;17.008;2024-03-08T13:58:35;24.95;;;14.05;;
76202;SDS011;64985;46.364;17.008;2024-03-08T14:01:38;21.83;;;13.25;;
76202;SDS011;64985;46.364;17.008;2024-03-08T14:04:41;22.45;;;13.40;;
76202;SDS011;64985;46.364;17.008;2024-03-08T14:07:43;22.15;;;12.80;;
76202;SDS011;64985;46.364;17.008;2024-03-08T14:10:48;21.42;;;11.63;;
76202;SDS011;64985;46.364;17.008;2024-03-08T14:13:52;20.63;;;11.77;;
76202;SDS011;64985;46.364;17.008;2024-03-08T14:16:55;20.55;;;12.23;;
76202;SDS011;64985;46.364;17.008;2024-03-08T14:20:00;20.33;;;12.40;;
76202;SDS011;64985;46.364;17.008;2024-03-08T14:23:02;22.80;;;13.15;;
76202;SDS011;64985;46.364;17.008;2024-03-08T14:26:08;19.98;;;12.07;;
76202;SDS011;64985;46.364;17.008;2024-03-08T14:29:11;22.77;;;13.48;;
76202;SDS011;64985;46.364;17.008;2024-03-08T14:32:14;24.40;;;13.43;;
76202;SDS011;64985;46.364;17.008;2024-03-08T14:35:16;23.13;;;13.57;;
76202;SDS011;64985;46.364;17.008;2024-03-08T14:38:18;24.25;;;14.43;;
76202;SDS011;64985;46.364;17.008;2024-03-08T14:41:20;23.50;;;13.05;;
76202;SDS011;64985;46.364;17.008;2024-03-08T14:44:26;23.08;;;13.38;;
76202;SDS011;64985;46.364;17.008;2024-03-08T14:47:28;25.52;;;13.68;;
76202;SDS011;64985;46.364;17.008;2024-03-08T14:50:31;28.10;;;14.85;;
76202;SDS011;64985;46.364;17.008;2024-03-08T14:53:35;24.17;;;13.57;;
76202;SDS011;64985;46.364;17.008;2024-03-08T14:56:37;21.58;;;12.80;;
76202;SDS011;64985;46.364;17.008;2024-03-08T14:59:39;21.45;;;12.48;;
76202;SDS011;64985;46.364;17.008;2024-03-08T15:02:44;23.77;;;12.85;;
76202;SDS011;64985;46.364;17.008;2024-03-08T15:05:46;27.55;;;13.82;;
76202;SDS011;64985;46.364;17.008;2024-03-08T15:08:50;24.15;;;13.55;;
76202;SDS011;64985;46.364;17.008;2024-03-08T15:11:54;25.52;;;13.55;;
76202;SDS011;64985;46.364;17.008;2024-03-08T15:14:58;21.25;;;13.02;;
76202;SDS011;64985;46.364;17.008;2024-03-08T15:18:00;24.95;;;12.93;;
76202;SDS011;64985;46.364;17.008;2024-03-08T15:21:06;24.40;;;12.75;;
76202;SDS011;64985;46.364;17.008;2024-03-08T15:24:08;24.58;;;12.60;;
76202;SDS011;64985;46.364;17.008;2024-03-08T15:27:17;23.33;;;13.10;;
76202;SDS011;64985;46.364;17.008;2024-03-08T15:30:19;25.27;;;13.00;;
76202;SDS011;64985;46.364;17.008;2024-03-08T15:33:28;24.10;;;13.20;;
76202;SDS011;64985;46.364;17.008;2024-03-08T15:36:32;23.27;;;13.15;;
76202;SDS011;64985;46.364;17.008;2024-03-08T15:39:35;25.38;;;12.85;;
76202;SDS011;64985;46.364;17.008;2024-03-08T15:42:40;25.95;;;14.27;;
76202;SDS011;64985;46.364;17.008;2024-03-08T15:45:42;25.30;;;13.80;;
76202;SDS011;64985;46.364;17.008;2024-03-08T15:48:46;22.77;;;12.88;;
76202;SDS011;64985;46.364;17.008;2024-03-08T15:51:50;22.65;;;13.05;;
76202;SDS011;64985;46.364;17.008;2024-03-08T15:54:52;24.42;;;12.73;;
76202;SDS011;64985;46.364;17.008;2024-03-08T15:57:55;25.20;;;12.93;;
76202;SDS011;64985;46.364;17.008;2024-03-08T16:00:57;22.40;;;12.10;;
76202;SDS011;64985;46.364;17.008;2024-03-08T16:04:00;21.08;;;12.20;;
76202;SDS011;64985;46.364;17.008;2024-03-08T16:07:03;22.92;;;11.95;;
76202;SDS011;64985;46.364;17.008;2024-03-08T16:10:07;25.40;;;12.40;;
76202;SDS011;64985;46.364;17.008;2024-03-08T16:13:12;23.00;;;11.80;;
76202;SDS011;64985;46.364;17.008;2024-03-08T16:16:14;28.10;;;13.73;;
76202;SDS011;64985;46.364;17.008;2024-03-08T16:19:17;25.67;;;13.43;;
76202;SDS011;64985;46.364;17.008;2024-03-08T16:22:19;23.55;;;12.60;;
76202;SDS011;64985;46.364;17.008;2024-03-08T16:25:21;29.20;;;13.02;;
76202;SDS011;64985;46.364;17.008;2024-03-08T16:28:24;26.88;;;14.05;;
76202;SDS011;64985;46.364;17.008;2024-03-08T16:31:30;28.10;;;14.25;;
76202;SDS011;64985;46.364;17.008;2024-03-08T16:34:32;24.40;;;12.52;;
76202;SDS011;64985;46.364;17.008;2024-03-08T16:37:37;25.15;;;13.07;;
76202;SDS011;64985;46.364;17.008;2024-03-08T16:40:43;26.55;;;13.32;;
76202;SDS011;64985;46.364;17.008;2024-03-08T16:43:50;24.77;;;13.20;;
76202;SDS011;64985;46.364;17.008;2024-03-08T16:46:52;22.92;;;12.25;;
76202;SDS011;64985;46.364;17.008;2024-03-08T16:49:55;22.58;;;11.40;;
76202;SDS011;64985;46.364;17.008;2024-03-08T16:52:57;24.42;;;12.40;;
76202;SDS011;64985;46.364;17.008;2024-03-08T16:56:01;22.73;;;11.95;;
76202;SDS011;64985;46.364;17.008;2024-03-08T16:59:06;28.27;;;12.77;;
76202;SDS011;64985;46.364;17.008;2024-03-08T17:02:10;27.80;;;12.77;;
76202;SDS011;64985;46.364;17.008;2024-03-08T17:05:14;32.35;;;13.30;;
76202;SDS011;64985;46.364;17.008;2024-03-08T17:08:18;25.95;;;13.02;;
76202;SDS011;64985;46.364;17.008;2024-03-08T17:11:20;26.65;;;13.18;;
76202;SDS011;64985;46.364;17.008;2024-03-08T17:14:23;26.33;;;13.05;;
76202;SDS011;64985;46.364;17.008;2024-03-08T17:17:26;26.90;;;12.07;;
76202;SDS011;64985;46.364;17.008;2024-03-08T17:20:28;26.27;;;13.23;;
76202;SDS011;64985;46.364;17.008;2024-03-08T17:23:30;23.17;;;12.45;;
76202;SDS011;64985;46.364;17.008;2024-03-08T17:26:33;26.50;;;13.50;;
76202;SDS011;64985;46.364;17.008;2024-03-08T17:29:35;25.55;;;12.60;;
76202;SDS011;64985;46.364;17.008;2024-03-08T17:32:39;25.92;;;13.02;;
76202;SDS011;64985;46.364;17.008;2024-03-08T17:35:41;28.52;;;13.85;;
76202;SDS011;64985;46.364;17.008;2024-03-08T17:38:46;27.88;;;12.93;;
76202;SDS011;64985;46.364;17.008;2024-03-08T17:41:52;26.45;;;13.25;;
76202;SDS011;64985;46.364;17.008;2024-03-08T17:44:55;26.15;;;13.32;;